KMZH

Moose Lake Carlton County Airport

Moose Lake, Minnesota, USA
METAR KMZH 242115Z AUTO 20009G15KT 10SM BKN036 BKN046 21/14 A2976 RMK AO2
Observed Flight Rules
Sep-24 @ 21:15 UTC (9 minutes ago) Visual Flight Rules
Wind Visibility Clouds
200° at 9 knots
 Gusting to 15 knots
10 miles
  • Broken at 3,600' AGL
  • Broken at 4,600' AGL
Temperatures Readings
Current 21°C / 70°F
Dewpoint 14°C / 57°F
Humidity 64%
Altimeter 29.76" Hg
Pressure 1008 hPa
Elevation 328
METAR KMZH 242115Z AUTO 20009G15KT 10SM BKN036 BKN046 21/14 A2976 RMK AO2
Observed Flight Rules
Sep-24 @ 21:15 UTC
(9 minutes ago)
VFR
Wind Visibility
200° at 9 knots
 Gusting to 15 knots
10 miles
Clouds
  • Broken at 3,600' AGL
  • Broken at 4,600' AGL
Temperature Dewpoint
21°C / 70°F 14°C / 57°F
Humidity Altimeter Pressure
64% 29.76" Hg 1008 hPa